Homer, Pennsylvania
Current Conditions -  °F | °C
As of 2:56 AM on Wednesday 26 Nov 2014 (Local Time) from KELZ Reporting Station
Overcast Overcast  
Wind Chill: 31°   Ceiling: 1800
Heat Index: 31°   Visibility: 10mi
Dew Point: 23°   Wind: 3mph
Humidity: 72%   Direction: 10°N
Pressure: 30.14"   Gusts: NA
Location:  41.7605°N, 77.9728°W
Report Text: KELZ 260756Z AUTO 01003KT 10SM OVC018 M01/M05 A3014 RMK AO2 SLP225 T10061050
Loading
Personal Weather Stations






























Interactive Weather Map New forecast layout! Learn more

10-Day Weather Forecast

Advertisements
Track Severe Weather on mobile